sensor_id;sensor_type;location;lat;lon;timestamp;pressure;altitude;pressure_sealevel;temperature;humidity
45864;BME280;31579;52.354;16.974;2023-03-25T00:00:42;502.3;;;-146.1;100.0
45864;BME280;31579;52.354;16.974;2023-03-25T00:01:46;502.8;;;-146.1;100.0
45864;BME280;31579;52.354;16.974;2023-03-25T00:02:51;503.1;;;-146.1;100.0
45864;BME280;31579;52.354;16.974;2023-03-25T00:03:54;503.2;;;-146.1;100.0
45864;BME280;31579;52.354;16.974;2023-03-25T00:04:58;503.3;;;-146.1;100.0
45864;BME280;31579;52.354;16.974;2023-03-25T00:06:00;507.5;;;-146.1;100.0
45864;BME280;31579;52.354;16.974;2023-03-25T00:07:05;506.2;;;-146.1;100.0
45864;BME280;31579;52.354;16.974;2023-03-25T00:08:09;505.8;;;-146.1;100.0
45864;BME280;31579;52.354;16.974;2023-03-25T00:09:13;505.5;;;-146.1;100.0
45864;BME280;31579;52.354;16.974;2023-03-25T00:10:18;505.2;;;-146.1;100.0
45864;BME280;31579;52.354;16.974;2023-03-25T00:11:21;505.0;;;-146.1;100.0
45864;BME280;31579;52.354;16.974;2023-03-25T00:12:25;504.8;;;-146.1;100.0
45864;BME280;31579;52.354;16.974;2023-03-25T00:13:30;506.6;;;-146.1;100.0
45864;BME280;31579;52.354;16.974;2023-03-25T00:14:33;505.9;;;-146.1;100.0
45864;BME280;31579;52.354;16.974;2023-03-25T00:16:42;505.3;;;-146.1;100.0
45864;BME280;31579;52.354;16.974;2023-03-25T00:17:45;505.0;;;-146.1;100.0
45864;BME280;31579;52.354;16.974;2023-03-25T00:18:49;504.9;;;-146.1;100.0
45864;BME280;31579;52.354;16.974;2023-03-25T00:19:54;504.7;;;-146.1;100.0
45864;BME280;31579;52.354;16.974;2023-03-25T00:20:58;504.6;;;-146.1;100.0
45864;BME280;31579;52.354;16.974;2023-03-25T00:22:01;504.5;;;-146.1;100.0
45864;BME280;31579;52.354;16.974;2023-03-25T00:23:06;504.3;;;-146.1;100.0
45864;BME280;31579;52.354;16.974;2023-03-25T00:24:10;504.3;;;-146.1;100.0
45864;BME280;31579;52.354;16.974;2023-03-25T00:25:14;504.2;;;-146.1;100.0
45864;BME280;31579;52.354;16.974;2023-03-25T00:26:17;504.1;;;-146.1;100.0
45864;BME280;31579;52.354;16.974;2023-03-25T00:27:21;503.9;;;-146.1;100.0
45864;BME280;31579;52.354;16.974;2023-03-25T00:28:29;503.8;;;-146.1;100.0
45864;BME280;31579;52.354;16.974;2023-03-25T00:29:29;503.7;;;-146.1;100.0
45864;BME280;31579;52.354;16.974;2023-03-25T00:30:33;503.7;;;-146.1;100.0
45864;BME280;31579;52.354;16.974;2023-03-25T00:31:38;503.7;;;-146.1;100.0
45864;BME280;31579;52.354;16.974;2023-03-25T00:32:41;503.6;;;-146.1;100.0
45864;BME280;31579;52.354;16.974;2023-03-25T00:33:45;503.6;;;-146.1;100.0
45864;BME280;31579;52.354;16.974;2023-03-25T00:34:49;503.7;;;-146.1;100.0
45864;BME280;31579;52.354;16.974;2023-03-25T00:35:53;503.7;;;-146.1;100.0
45864;BME280;31579;52.354;16.974;2023-03-25T00:36:57;503.7;;;-146.1;100.0
45864;BME280;31579;52.354;16.974;2023-03-25T00:38:01;503.7;;;-146.1;100.0
45864;BME280;31579;52.354;16.974;2023-03-25T00:39:06;503.6;;;-146.1;100.0
45864;BME280;31579;52.354;16.974;2023-03-25T00:40:10;503.8;;;-146.1;100.0
45864;BME280;31579;52.354;16.974;2023-03-25T00:41:18;503.7;;;-146.1;100.0
45864;BME280;31579;52.354;16.974;2023-03-25T00:42:18;503.6;;;-146.1;100.0
45864;BME280;31579;52.354;16.974;2023-03-25T00:43:22;503.6;;;-146.1;100.0
45864;BME280;31579;52.354;16.974;2023-03-25T00:44:27;503.6;;;-146.1;100.0
45864;BME280;31579;52.354;16.974;2023-03-25T00:45:29;507.6;;;-146.1;100.0
45864;BME280;31579;52.354;16.974;2023-03-25T00:46:32;507.9;;;-146.1;100.0
45864;BME280;31579;52.354;16.974;2023-03-25T00:47:35;506.8;;;-146.1;100.0
45864;BME280;31579;52.354;16.974;2023-03-25T00:48:39;506.2;;;-146.1;100.0
45864;BME280;31579;52.354;16.974;2023-03-25T00:49:43;505.8;;;-146.1;100.0
45864;BME280;31579;52.354;16.974;2023-03-25T00:50:47;505.5;;;-146.1;100.0
45864;BME280;31579;52.354;16.974;2023-03-25T00:51:51;505.2;;;-146.1;100.0
45864;BME280;31579;52.354;16.974;2023-03-25T00:52:55;504.9;;;-146.1;100.0
45864;BME280;31579;52.354;16.974;2023-03-25T00:53:43;504.8;;;-146.1;100.0
45864;BME280;31579;52.354;16.974;2023-03-25T00:55:01;458.6;;;-146.1;100.0
45864;BME280;31579;52.354;16.974;2023-03-25T00:56:05;488.8;;;-146.1;100.0
45864;BME280;31579;52.354;16.974;2023-03-25T00:57:09;494.5;;;-146.1;100.0
45864;BME280;31579;52.354;16.974;2023-03-25T00:58:14;497.4;;;-146.1;100.0
45864;BME280;31579;52.354;16.974;2023-03-25T00:59:18;498.7;;;-146.1;100.0
45864;BME280;31579;52.354;16.974;2023-03-25T01:00:22;499.7;;;-146.1;100.0
45864;BME280;31579;52.354;16.974;2023-03-25T01:01:26;500.3;;;-146.1;100.0
45864;BME280;31579;52.354;16.974;2023-03-25T01:02:30;500.8;;;-146.1;100.0
45864;BME280;31579;52.354;16.974;2023-03-25T01:03:34;501.0;;;-146.1;100.0
45864;BME280;31579;52.354;16.974;2023-03-25T01:04:38;501.3;;;-146.1;100.0
45864;BME280;31579;52.354;16.974;2023-03-25T01:05:43;501.7;;;-146.1;100.0
45864;BME280;31579;52.354;16.974;2023-03-25T01:06:47;501.8;;;-146.1;100.0
45864;BME280;31579;52.354;16.974;2023-03-25T01:07:51;501.9;;;-146.1;100.0
45864;BME280;31579;52.354;16.974;2023-03-25T01:08:56;496.0;;;-146.1;100.0
45864;BME280;31579;52.354;16.974;2023-03-25T01:09:59;503.8;;;-146.1;100.0
45864;BME280;31579;52.354;16.974;2023-03-25T01:11:03;502.8;;;-146.1;100.0
45864;BME280;31579;52.354;16.974;2023-03-25T01:12:07;502.7;;;-146.1;100.0
45864;BME280;31579;52.354;16.974;2023-03-25T01:13:11;502.8;;;-146.1;100.0
45864;BME280;31579;52.354;16.974;2023-03-25T01:14:17;502.7;;;-146.1;100.0
45864;BME280;31579;52.354;16.974;2023-03-25T01:15:19;502.7;;;-146.1;100.0
45864;BME280;31579;52.354;16.974;2023-03-25T01:16:23;502.7;;;-146.1;100.0
45864;BME280;31579;52.354;16.974;2023-03-25T01:17:27;502.6;;;-146.1;100.0
45864;BME280;31579;52.354;16.974;2023-03-25T01:18:32;502.7;;;-146.1;100.0
45864;BME280;31579;52.354;16.974;2023-03-25T01:19:36;502.8;;;-146.1;100.0
45864;BME280;31579;52.354;16.974;2023-03-25T01:20:40;502.8;;;-146.1;100.0
45864;BME280;31579;52.354;16.974;2023-03-25T01:21:45;502.9;;;-146.1;100.0
45864;BME280;31579;52.354;16.974;2023-03-25T01:22:49;502.9;;;-146.1;100.0
45864;BME280;31579;52.354;16.974;2023-03-25T01:23:53;502.9;;;-146.1;100.0
45864;BME280;31579;52.354;16.974;2023-03-25T01:24:56;507.4;;;-146.1;100.0
45864;BME280;31579;52.354;16.974;2023-03-25T01:26:00;506.0;;;-146.1;100.0
45864;BME280;31579;52.354;16.974;2023-03-25T01:27:03;507.3;;;-146.1;100.0
45864;BME280;31579;52.354;16.974;2023-03-25T01:28:07;506.3;;;-146.1;100.0
45864;BME280;31579;52.354;16.974;2023-03-25T01:29:13;505.9;;;-146.1;100.0
45864;BME280;31579;52.354;16.974;2023-03-25T01:30:16;505.5;;;-146.1;100.0
45864;BME280;31579;52.354;16.974;2023-03-25T01:31:20;505.2;;;-146.1;100.0
45864;BME280;31579;52.354;16.974;2023-03-25T01:32:24;504.9;;;-146.1;100.0
45864;BME280;31579;52.354;16.974;2023-03-25T01:33:28;504.6;;;-146.1;100.0
45864;BME280;31579;52.354;16.974;2023-03-25T01:34:33;504.6;;;-146.1;100.0
45864;BME280;31579;52.354;16.974;2023-03-25T01:35:37;504.3;;;-146.1;100.0
45864;BME280;31579;52.354;16.974;2023-03-25T01:36:41;504.1;;;-146.1;100.0
45864;BME280;31579;52.354;16.974;2023-03-25T01:37:45;503.9;;;-146.1;100.0
45864;BME280;31579;52.354;16.974;2023-03-25T01:38:49;503.7;;;-146.1;100.0
45864;BME280;31579;52.354;16.974;2023-03-25T01:39:53;503.5;;;-146.1;100.0
45864;BME280;31579;52.354;16.974;2023-03-25T01:40:55;507.6;;;-146.1;100.0
45864;BME280;31579;52.354;16.974;2023-03-25T01:41:57;508.8;;;-146.1;100.0
45864;BME280;31579;52.354;16.974;2023-03-25T01:43:01;507.6;;;-146.1;100.0
45864;BME280;31579;52.354;16.974;2023-03-25T01:45:13;506.5;;;-146.1;100.0
45864;BME280;31579;52.354;16.974;2023-03-25T01:46:13;506.0;;;-146.1;100.0
45864;BME280;31579;52.354;16.974;2023-03-25T01:47:17;505.7;;;-146.1;100.0
45864;BME280;31579;52.354;16.974;2023-03-25T01:48:24;505.3;;;-146.1;100.0
45864;BME280;31579;52.354;16.974;2023-03-25T01:49:26;505.1;;;-146.1;100.0
45864;BME280;31579;52.354;16.974;2023-03-25T01:50:29;504.8;;;-146.1;100.0
45864;BME280;31579;52.354;16.974;2023-03-25T01:51:34;504.5;;;-146.1;100.0
45864;BME280;31579;52.354;16.974;2023-03-25T01:52:37;504.3;;;-146.1;100.0
45864;BME280;31579;52.354;16.974;2023-03-25T01:53:41;504.1;;;-146.1;100.0
45864;BME280;31579;52.354;16.974;2023-03-25T01:54:45;503.9;;;-146.1;100.0
45864;BME280;31579;52.354;16.974;2023-03-25T01:55:49;503.6;;;-146.1;100.0
45864;BME280;31579;52.354;16.974;2023-03-25T01:56:53;503.4;;;-146.1;100.0
45864;BME280;31579;52.354;16.974;2023-03-25T01:57:57;503.2;;;-146.1;100.0
45864;BME280;31579;52.354;16.974;2023-03-25T01:59:02;503.0;;;-146.1;100.0
45864;BME280;31579;52.354;16.974;2023-03-25T02:00:05;502.6;;;-146.1;100.0
45864;BME280;31579;52.354;16.974;2023-03-25T02:01:09;502.4;;;-146.1;100.0
45864;BME280;31579;52.354;16.974;2023-03-25T02:02:14;502.2;;;-146.1;100.0
45864;BME280;31579;52.354;16.974;2023-03-25T02:03:18;501.9;;;-146.1;100.0
45864;BME280;31579;52.354;16.974;2023-03-25T02:06:35;501.6;;;-146.1;100.0
45864;BME280;31579;52.354;16.974;2023-03-25T02:07:37;501.4;;;-146.1;100.0
45864;BME280;31579;52.354;16.974;2023-03-25T02:08:39;501.2;;;-146.1;100.0
45864;BME280;31579;52.354;16.974;2023-03-25T02:11:02;469.0;;;-146.1;100.0
45864;BME280;31579;52.354;16.974;2023-03-25T02:12:05;482.2;;;-146.1;100.0
45864;BME280;31579;52.354;16.974;2023-03-25T02:13:09;487.5;;;-146.1;100.0
45864;BME280;31579;52.354;16.974;2023-03-25T02:14:32;463.4;;;-146.1;100.0
45864;BME280;31579;52.354;16.974;2023-03-25T02:15:36;472.9;;;-146.1;100.0
45864;BME280;31579;52.354;16.974;2023-03-25T02:24:10;493.1;;;-146.1;100.0
45864;BME280;31579;52.354;16.974;2023-03-25T02:27:18;493.7;;;-146.1;100.0
45864;BME280;31579;52.354;16.974;2023-03-25T02:30:43;466.1;;;-146.1;100.0
45864;BME280;31579;52.354;16.974;2023-03-25T02:31:40;475.7;;;-146.1;100.0
45864;BME280;31579;52.354;16.974;2023-03-25T02:40:08;487.4;;;-146.1;100.0
45864;BME280;31579;52.354;16.974;2023-03-25T02:45:31;459.2;;;-146.1;100.0
45864;BME280;31579;52.354;16.974;2023-03-25T02:46:34;468.3;;;-146.1;100.0
45864;BME280;31579;52.354;16.974;2023-03-25T02:47:41;473.4;;;-146.1;100.0
45864;BME280;31579;52.354;16.974;2023-03-25T02:49:49;478.0;;;-146.1;100.0
45864;BME280;31579;52.354;16.974;2023-03-25T02:50:51;479.2;;;-146.1;100.0
45864;BME280;31579;52.354;16.974;2023-03-25T02:51:57;479.9;;;-146.1;100.0
45864;BME280;31579;52.354;16.974;2023-03-25T02:52:59;480.6;;;-146.1;100.0
45864;BME280;31579;52.354;16.974;2023-03-25T02:54:01;501.7;;;-146.1;100.0
45864;BME280;31579;52.354;16.974;2023-03-25T02:55:06;497.7;;;-146.1;100.0
45864;BME280;31579;52.354;16.974;2023-03-25T02:56:10;495.8;;;-146.1;100.0
45864;BME280;31579;52.354;16.974;2023-03-25T02:57:14;494.3;;;-146.1;100.0
45864;BME280;31579;52.354;16.974;2023-03-25T02:58:18;492.9;;;-146.1;100.0
45864;BME280;31579;52.354;16.974;2023-03-25T02:59:22;491.8;;;-146.1;100.0
45864;BME280;31579;52.354;16.974;2023-03-25T03:00:26;490.6;;;-146.1;100.0
45864;BME280;31579;52.354;16.974;2023-03-25T03:01:29;489.7;;;-146.1;100.0
45864;BME280;31579;52.354;16.974;2023-03-25T03:02:33;488.9;;;-146.1;100.0
45864;BME280;31579;52.354;16.974;2023-03-25T03:03:37;488.1;;;-146.1;100.0
45864;BME280;31579;52.354;16.974;2023-03-25T03:05:48;487.1;;;-146.1;100.0
45864;BME280;31579;52.354;16.974;2023-03-25T03:06:50;486.3;;;-146.1;100.0
45864;BME280;31579;52.354;16.974;2023-03-25T03:12:21;500.1;;;-146.1;100.0
45864;BME280;31579;52.354;16.974;2023-03-25T03:15:22;494.6;;;-146.1;100.0
45864;BME280;31579;52.354;16.974;2023-03-25T03:16:30;492.9;;;-146.1;100.0
45864;BME280;31579;52.354;16.974;2023-03-25T03:20:41;486.7;;;-146.1;100.0
45864;BME280;31579;52.354;16.974;2023-03-25T03:22:53;483.9;;;-146.1;100.0
45864;BME280;31579;52.354;16.974;2023-03-25T03:24:59;480.9;;;-146.1;100.0
45864;BME280;31579;52.354;16.974;2023-03-25T03:28:09;476.9;;;-146.1;100.0
45864;BME280;31579;52.354;16.974;2023-03-25T03:29:14;475.1;;;-146.1;100.0
45864;BME280;31579;52.354;16.974;2023-03-25T03:30:18;473.0;;;-146.1;100.0
45864;BME280;31579;52.354;16.974;2023-03-25T03:31:23;471.6;;;-146.1;100.0
45864;BME280;31579;52.354;16.974;2023-03-25T03:33:29;468.7;;;-146.1;100.0
45864;BME280;31579;52.354;16.974;2023-03-25T03:34:36;466.3;;;-146.1;100.0
45864;BME280;31579;52.354;16.974;2023-03-25T03:35:36;464.3;;;-146.1;100.0
45864;BME280;31579;52.354;16.974;2023-03-25T03:36:43;463.0;;;-146.1;100.0
45864;BME280;31579;52.354;16.974;2023-03-25T03:37:46;464.2;;;-146.1;100.0
45864;BME280;31579;52.354;16.974;2023-03-25T03:38:50;462.4;;;-146.1;100.0
45864;BME280;31579;52.354;16.974;2023-03-25T03:39:52;461.3;;;-146.1;100.0
45864;BME280;31579;52.354;16.974;2023-03-25T03:40:57;460.2;;;-146.1;100.0
45864;BME280;31579;52.354;16.974;2023-03-25T03:42:02;459.2;;;-146.1;100.0
45864;BME280;31579;52.354;16.974;2023-03-25T03:43:04;489.8;;;-146.1;100.0
45864;BME280;31579;52.354;16.974;2023-03-25T03:44:10;482.1;;;-146.1;100.0
45864;BME280;31579;52.354;16.974;2023-03-25T03:44:37;480.3;;;-146.1;100.0
45864;BME280;31579;52.354;16.974;2023-03-25T03:45:42;467.4;;;-146.1;100.0
45864;BME280;31579;52.354;16.974;2023-03-25T03:47:50;464.5;;;-146.1;100.0
45864;BME280;31579;52.354;16.974;2023-03-25T03:48:53;463.6;;;-146.1;100.0
45864;BME280;31579;52.354;16.974;2023-03-25T03:49:58;463.0;;;-146.1;100.0
45864;BME280;31579;52.354;16.974;2023-03-25T03:51:02;462.3;;;-146.1;100.0
45864;BME280;31579;52.354;16.974;2023-03-25T03:53:14;463.3;;;-146.1;100.0
45864;BME280;31579;52.354;16.974;2023-03-25T03:55:19;462.5;;;-146.1;100.0
45864;BME280;31579;52.354;16.974;2023-03-25T03:56:22;462.5;;;-146.1;100.0
45864;BME280;31579;52.354;16.974;2023-03-25T03:57:30;462.7;;;-146.1;100.0
45864;BME280;31579;52.354;16.974;2023-03-25T03:58:31;463.3;;;-146.1;100.0
45864;BME280;31579;52.354;16.974;2023-03-25T04:00:47;357.0;;;-146.1;100.0
45864;BME280;31579;52.354;16.974;2023-03-25T04:01:44;383.7;;;-146.1;100.0
45864;BME280;31579;52.354;16.974;2023-03-25T04:02:52;405.4;;;-146.1;100.0
45864;BME280;31579;52.354;16.974;2023-03-25T04:03:54;428.2;;;-146.1;100.0
45864;BME280;31579;52.354;16.974;2023-03-25T04:04:57;440.6;;;-146.1;100.0
45864;BME280;31579;52.354;16.974;2023-03-25T04:06:02;449.9;;;-146.1;100.0
45864;BME280;31579;52.354;16.974;2023-03-25T04:07:06;489.9;;;-146.1;100.0
45864;BME280;31579;52.354;16.974;2023-03-25T04:08:11;484.3;;;-146.1;100.0
45864;BME280;31579;52.354;16.974;2023-03-25T04:10:17;482.2;;;-146.1;100.0
45864;BME280;31579;52.354;16.974;2023-03-25T04:11:21;481.8;;;-146.1;100.0
45864;BME280;31579;52.354;16.974;2023-03-25T04:12:25;481.6;;;-146.1;100.0
45864;BME280;31579;52.354;16.974;2023-03-25T04:13:30;481.4;;;-146.1;100.0
45864;BME280;31579;52.354;16.974;2023-03-25T04:14:31;481.4;;;-146.1;100.0
45864;BME280;31579;52.354;16.974;2023-03-25T04:15:36;481.3;;;-146.1;100.0
45864;BME280;31579;52.354;16.974;2023-03-25T04:16:40;481.2;;;-146.1;100.0
45864;BME280;31579;52.354;16.974;2023-03-25T04:17:43;481.1;;;-146.1;100.0
45864;BME280;31579;52.354;16.974;2023-03-25T04:18:47;480.9;;;-146.1;100.0
45864;BME280;31579;52.354;16.974;2023-03-25T04:19:51;480.7;;;-146.1;100.0
45864;BME280;31579;52.354;16.974;2023-03-25T04:20:55;480.4;;;-146.1;100.0
45864;BME280;31579;52.354;16.974;2023-03-25T04:22:00;480.1;;;-146.1;100.0
45864;BME280;31579;52.354;16.974;2023-03-25T04:23:03;479.5;;;-146.1;100.0
45864;BME280;31579;52.354;16.974;2023-03-25T04:24:07;478.5;;;-146.1;100.0
45864;BME280;31579;52.354;16.974;2023-03-25T04:25:12;477.8;;;-146.1;100.0
45864;BME280;31579;52.354;16.974;2023-03-25T04:26:16;476.8;;;-146.1;100.0
45864;BME280;31579;52.354;16.974;2023-03-25T04:27:20;476.2;;;-146.1;100.0
45864;BME280;31579;52.354;16.974;2023-03-25T04:28:23;475.6;;;-146.1;100.0
45864;BME280;31579;52.354;16.974;2023-03-25T04:29:29;474.9;;;-146.1;100.0
45864;BME280;31579;52.354;16.974;2023-03-25T04:30:31;474.4;;;-146.1;100.0
45864;BME280;31579;52.354;16.974;2023-03-25T04:31:35;474.0;;;-146.1;100.0
45864;BME280;31579;52.354;16.974;2023-03-25T04:32:39;473.5;;;-146.1;100.0
45864;BME280;31579;52.354;16.974;2023-03-25T04:33:44;474.4;;;-146.1;100.0
45864;BME280;31579;52.354;16.974;2023-03-25T04:34:48;473.4;;;-146.1;100.0
45864;BME280;31579;52.354;16.974;2023-03-25T04:35:52;472.3;;;-146.1;100.0
45864;BME280;31579;52.354;16.974;2023-03-25T04:36:56;470.8;;;-146.1;100.0
45864;BME280;31579;52.354;16.974;2023-03-25T04:38:00;469.7;;;-146.1;100.0
45864;BME280;31579;52.354;16.974;2023-03-25T04:39:06;470.4;;;-146.1;100.0
45864;BME280;31579;52.354;16.974;2023-03-25T04:40:11;470.8;;;-146.1;100.0
45864;BME280;31579;52.354;16.974;2023-03-25T04:41:14;469.1;;;-146.1;100.0
45864;BME280;31579;52.354;16.974;2023-03-25T04:42:18;467.6;;;-146.1;100.0
45864;BME280;31579;52.354;16.974;2023-03-25T04:43:22;466.5;;;-146.1;100.0
45864;BME280;31579;52.354;16.974;2023-03-25T04:44:27;465.5;;;-146.1;100.0
45864;BME280;31579;52.354;16.974;2023-03-25T04:45:30;464.4;;;-146.1;100.0
45864;BME280;31579;52.354;16.974;2023-03-25T04:46:32;499.9;;;-146.1;100.0
45864;BME280;31579;52.354;16.974;2023-03-25T04:47:37;493.7;;;-146.1;100.0
45864;BME280;31579;52.354;16.974;2023-03-25T04:48:41;490.3;;;-146.1;100.0
45864;BME280;31579;52.354;16.974;2023-03-25T04:49:45;487.1;;;-146.1;100.0
45864;BME280;31579;52.354;16.974;2023-03-25T04:50:49;484.3;;;-146.1;100.0
45864;BME280;31579;52.354;16.974;2023-03-25T04:51:53;481.6;;;-146.1;100.0
45864;BME280;31579;52.354;16.974;2023-03-25T04:52:57;478.6;;;-146.1;100.0
45864;BME280;31579;52.354;16.974;2023-03-25T04:54:01;476.0;;;-146.1;100.0
45864;BME280;31579;52.354;16.974;2023-03-25T04:55:06;473.1;;;-146.1;100.0
45864;BME280;31579;52.354;16.974;2023-03-25T04:56:11;470.5;;;-146.1;100.0
45864;BME280;31579;52.354;16.974;2023-03-25T04:57:13;468.2;;;-146.1;100.0
45864;BME280;31579;52.354;16.974;2023-03-25T04:58:18;466.1;;;-146.1;100.0
45864;BME280;31579;52.354;16.974;2023-03-25T04:59:21;464.1;;;-146.1;100.0
45864;BME280;31579;52.354;16.974;2023-03-25T05:00:25;462.0;;;-146.1;100.0
45864;BME280;31579;52.354;16.974;2023-03-25T05:01:31;462.8;;;-146.1;100.0
45864;BME280;31579;52.354;16.974;2023-03-25T05:02:34;460.5;;;-146.1;100.0
45864;BME280;31579;52.354;16.974;2023-03-25T05:03:37;490.1;;;-146.1;100.0
45864;BME280;31579;52.354;16.974;2023-03-25T05:04:41;480.3;;;-146.1;100.0
45864;BME280;31579;52.354;16.974;2023-03-25T05:05:45;476.1;;;-146.1;100.0
45864;BME280;31579;52.354;16.974;2023-03-25T05:06:50;472.9;;;-146.1;100.0
45864;BME280;31579;52.354;16.974;2023-03-25T05:07:54;470.4;;;-146.1;100.0
45864;BME280;31579;52.354;16.974;2023-03-25T05:08:58;468.6;;;-146.1;100.0
45864;BME280;31579;52.354;16.974;2023-03-25T05:10:01;466.9;;;-146.1;100.0
45864;BME280;31579;52.354;16.974;2023-03-25T05:11:05;465.8;;;-146.1;100.0
45864;BME280;31579;52.354;16.974;2023-03-25T05:12:10;465.8;;;-146.1;100.0
45864;BME280;31579;52.354;16.974;2023-03-25T05:13:13;465.8;;;-146.1;100.0
45864;BME280;31579;52.354;16.974;2023-03-25T05:14:19;465.6;;;-146.1;100.0
45864;BME280;31579;52.354;16.974;2023-03-25T05:15:21;466.7;;;-146.1;100.0
45864;BME280;31579;52.354;16.974;2023-03-25T05:16:25;468.3;;;-146.1;100.0
45864;BME280;31579;52.354;16.974;2023-03-25T05:17:29;470.4;;;-146.1;100.0
45864;BME280;31579;52.354;16.974;2023-03-25T05:18:32;493.5;;;-146.1;100.0
45864;BME280;31579;52.354;16.974;2023-03-25T05:19:35;500.8;;;-146.1;100.0
45864;BME280;31579;52.354;16.974;2023-03-25T05:20:40;497.8;;;-146.1;100.0
45864;BME280;31579;52.354;16.974;2023-03-25T05:21:43;496.7;;;-146.1;100.0
45864;BME280;31579;52.354;16.974;2023-03-25T05:22:47;496.0;;;-146.1;100.0
45864;BME280;31579;52.354;16.974;2023-03-25T05:23:51;495.8;;;-146.1;100.0
45864;BME280;31579;52.354;16.974;2023-03-25T05:24:55;495.7;;;-146.1;100.0
45864;BME280;31579;52.354;16.974;2023-03-25T05:25:59;495.9;;;-146.1;100.0
45864;BME280;31579;52.354;16.974;2023-03-25T05:27:03;496.1;;;-146.1;100.0
45864;BME280;31579;52.354;16.974;2023-03-25T05:28:08;496.4;;;-146.1;100.0
45864;BME280;31579;52.354;16.974;2023-03-25T05:29:13;496.8;;;-146.1;100.0
45864;BME280;31579;52.354;16.974;2023-03-25T05:30:16;497.3;;;-146.1;100.0
45864;BME280;31579;52.354;16.974;2023-03-25T05:31:19;498.1;;;-146.1;100.0
45864;BME280;31579;52.354;16.974;2023-03-25T05:32:24;498.8;;;-146.1;100.0
45864;BME280;31579;52.354;16.974;2023-03-25T05:33:27;499.5;;;-146.1;100.0
45864;BME280;31579;52.354;16.974;2023-03-25T05:34:31;500.3;;;-146.1;100.0
45864;BME280;31579;52.354;16.974;2023-03-25T05:35:36;501.1;;;-146.1;100.0
45864;BME280;31579;52.354;16.974;2023-03-25T05:36:39;501.7;;;-146.1;100.0
45864;BME280;31579;52.354;16.974;2023-03-25T05:37:43;502.1;;;-146.1;100.0
45864;BME280;31579;52.354;16.974;2023-03-25T05:38:47;502.5;;;-146.1;100.0
45864;BME280;31579;52.354;16.974;2023-03-25T05:39:51;502.8;;;-146.1;100.0
45864;BME280;31579;52.354;16.974;2023-03-25T05:40:55;503.3;;;-146.1;100.0
45864;BME280;31579;52.354;16.974;2023-03-25T05:41:59;503.5;;;-146.1;100.0
45864;BME280;31579;52.354;16.974;2023-03-25T05:43:03;503.9;;;-146.1;100.0
45864;BME280;31579;52.354;16.974;2023-03-25T05:44:08;504.2;;;-146.1;100.0
45864;BME280;31579;52.354;16.974;2023-03-25T05:45:11;504.5;;;-146.1;100.0
45864;BME280;31579;52.354;16.974;2023-03-25T05:46:16;504.6;;;-146.1;100.0
45864;BME280;31579;52.354;16.974;2023-03-25T05:47:20;504.9;;;-146.1;100.0
45864;BME280;31579;52.354;16.974;2023-03-25T05:48:23;505.2;;;-146.1;100.0
45864;BME280;31579;52.354;16.974;2023-03-25T05:49:27;505.3;;;-146.1;100.0
45864;BME280;31579;52.354;16.974;2023-03-25T05:50:31;505.5;;;-146.1;100.0
45864;BME280;31579;52.354;16.974;2023-03-25T05:51:36;505.8;;;-146.1;100.0
45864;BME280;31579;52.354;16.974;2023-03-25T05:52:40;505.9;;;-146.1;100.0
45864;BME280;31579;52.354;16.974;2023-03-25T05:53:45;506.1;;;-146.1;100.0
45864;BME280;31579;52.354;16.974;2023-03-25T05:54:48;506.2;;;-146.1;100.0
45864;BME280;31579;52.354;16.974;2023-03-25T05:55:52;506.4;;;-146.1;100.0
45864;BME280;31579;52.354;16.974;2023-03-25T05:56:56;506.5;;;-146.1;100.0
45864;BME280;31579;52.354;16.974;2023-03-25T05:58:00;506.7;;;-146.1;100.0
45864;BME280;31579;52.354;16.974;2023-03-25T05:59:06;506.9;;;-146.1;100.0
45864;BME280;31579;52.354;16.974;2023-03-25T06:00:10;506.9;;;-146.1;100.0
45864;BME280;31579;52.354;16.974;2023-03-25T06:01:14;506.9;;;-146.1;100.0
45864;BME280;31579;52.354;16.974;2023-03-25T06:02:17;507.0;;;-146.1;100.0
45864;BME280;31579;52.354;16.974;2023-03-25T06:03:21;507.0;;;-146.1;100.0
45864;BME280;31579;52.354;16.974;2023-03-25T06:04:25;507.1;;;-146.1;100.0
45864;BME280;31579;52.354;16.974;2023-03-25T06:05:29;507.1;;;-146.1;100.0
45864;BME280;31579;52.354;16.974;2023-03-25T06:06:34;507.1;;;-146.1;100.0
45864;BME280;31579;52.354;16.974;2023-03-25T06:07:38;507.1;;;-146.1;100.0
45864;BME280;31579;52.354;16.974;2023-03-25T06:08:42;507.1;;;-146.1;100.0
45864;BME280;31579;52.354;16.974;2023-03-25T06:09:46;507.1;;;-146.1;100.0
45864;BME280;31579;52.354;16.974;2023-03-25T06:10:50;507.1;;;-146.1;100.0
45864;BME280;31579;52.354;16.974;2023-03-25T06:11:53;507.1;;;-146.1;100.0
45864;BME280;31579;52.354;16.974;2023-03-25T06:12:57;507.1;;;-146.1;100.0
45864;BME280;31579;52.354;16.974;2023-03-25T06:14:02;507.1;;;-146.1;100.0
45864;BME280;31579;52.354;16.974;2023-03-25T06:15:06;507.0;;;-146.1;100.0
45864;BME280;31579;52.354;16.974;2023-03-25T06:16:09;507.0;;;-146.1;100.0
45864;BME280;31579;52.354;16.974;2023-03-25T06:17:15;507.0;;;-146.1;100.0
45864;BME280;31579;52.354;16.974;2023-03-25T06:18:17;507.0;;;-146.1;100.0
45864;BME280;31579;52.354;16.974;2023-03-25T06:19:21;507.0;;;-146.1;100.0
45864;BME280;31579;52.354;16.974;2023-03-25T06:20:26;507.0;;;-146.1;100.0
45864;BME280;31579;52.354;16.974;2023-03-25T06:21:31;507.0;;;-146.1;100.0
45864;BME280;31579;52.354;16.974;2023-03-25T06:22:35;507.0;;;-146.1;100.0
45864;BME280;31579;52.354;16.974;2023-03-25T06:23:37;507.0;;;-146.1;100.0
45864;BME280;31579;52.354;16.974;2023-03-25T06:24:42;507.0;;;-146.1;100.0
45864;BME280;31579;52.354;16.974;2023-03-25T06:25:45;507.0;;;-146.1;100.0
45864;BME280;31579;52.354;16.974;2023-03-25T06:26:56;503.8;;;-146.1;100.0
45864;BME280;31579;52.354;16.974;2023-03-25T06:28:00;504.8;;;-146.1;100.0
45864;BME280;31579;52.354;16.974;2023-03-25T06:29:12;491.2;;;-146.1;100.0
45864;BME280;31579;52.354;16.974;2023-03-25T06:30:18;500.1;;;-146.1;100.0
45864;BME280;31579;52.354;16.974;2023-03-25T06:31:21;502.3;;;-146.1;100.0
45864;BME280;31579;52.354;16.974;2023-03-25T06:32:24;503.6;;;-146.1;100.0
45864;BME280;31579;52.354;16.974;2023-03-25T06:33:28;504.3;;;-146.1;100.0
45864;BME280;31579;52.354;16.974;2023-03-25T06:34:32;504.9;;;-146.1;100.0